Time;durP1;ratioP1;P1;durP2;ratioP2;P2;SDS_P1;SDS_P2;PMS_P1;PMS_P2;Temp;Humidity;BMP_temperature;BMP_pressure;BME280_temperature;BME280_humidity;BME280_pressure;Samples;Min_cycle;Max_cycle;Signal;HPM_P1;HPM_P2
2023/06/26 00:02:16;;;;;;;2.85;1.08;;;;;;;10.68;100.00;101048.25;5055758;28;20365;-80
2023/06/26 00:04:44;;;;;;;5.25;1.67;;;;;;;10.68;100.00;101045.56;5038061;28;20021;-78
2023/06/26 00:07:10;;;;;;;2.55;2.35;;;;;;;10.62;100.00;101035.47;5038182;28;20095;-80
2023/06/26 00:09:36;;;;;;;3.50;1.15;;;;;;;10.70;100.00;101046.22;5021777;28;20029;-78
2023/06/26 00:12:02;;;;;;;7.30;1.58;;;;;;;10.78;100.00;101051.59;5038200;28;20056;-79
2023/06/26 00:14:29;;;;;;;3.40;1.45;;;;;;;10.77;100.00;101044.56;5021574;28;20071;-79
2023/06/26 00:16:54;;;;;;;6.50;1.80;;;;;;;10.73;100.00;101037.81;5054628;28;20036;-80
2023/06/26 00:19:20;;;;;;;7.75;1.83;;;;;;;10.82;100.00;101046.72;5037942;28;20460;-79
2023/06/26 00:21:48;;;;;;;5.93;1.83;;;;;;;10.58;100.00;101010.75;5037982;28;20098;-79
2023/06/26 00:24:14;;;;;;;5.57;1.85;;;;;;;10.80;100.00;101057.66;5054420;28;20066;-79
2023/06/26 00:26:40;;;;;;;5.43;1.75;;;;;;;10.82;100.00;101049.41;5054237;28;20129;-79
2023/06/26 00:29:06;;;;;;;3.85;2.35;;;;;;;10.87;100.00;101055.09;5055467;28;20471;-78
2023/06/26 00:31:31;;;;;;;2.00;1.10;;;;;;;10.85;100.00;101062.50;5037360;28;20115;-79
2023/06/26 00:33:57;;;;;;;4.45;1.88;;;;;;;10.74;100.00;101061.00;5055287;28;20045;-78
2023/06/26 00:36:23;;;;;;;3.88;1.60;;;;;;;10.58;100.00;101051.09;5054113;28;20489;-79
2023/06/26 00:38:49;;;;;;;2.72;1.10;;;;;;;10.48;100.00;101066.59;5021013;28;20029;-79
2023/06/26 00:41:15;;;;;;;5.93;1.42;;;;;;;10.38;100.00;101065.91;5054110;28;20162;-78
2023/06/26 00:43:41;;;;;;;4.53;1.40;;;;;;;10.30;100.00;101062.19;5053871;28;20116;-80
2023/06/26 00:46:10;;;;;;;2.67;1.35;;;;;;;10.27;100.00;101051.78;5037654;28;20029;-81
2023/06/26 00:48:37;;;;;;;7.00;1.92;;;;;;;10.45;100.00;101070.44;5053957;28;20493;-79
2023/06/26 00:51:03;;;;;;;4.90;1.33;;;;;;;10.56;100.00;101074.66;5053555;28;20025;-77
2023/06/26 00:53:29;;;;;;;4.63;1.30;;;;;;;10.60;100.00;101059.84;5004689;28;20045;-78
2023/06/26 00:55:55;;;;;;;6.55;1.27;;;;;;;10.58;100.00;101059.16;5037511;28;20028;-79
2023/06/26 00:58:24;;;;;;;8.43;1.35;;;;;;;10.68;100.00;101072.44;5037160;28;20025;-78
2023/06/26 01:00:53;;;;;;;7.90;1.60;;;;;;;10.80;100.00;101068.41;5020655;28;20033;-78
2023/06/26 01:03:23;;;;;;;5.55;1.40;;;;;;;10.90;100.00;101076.28;5053719;28;20031;-79
2023/06/26 01:05:50;;;;;;;8.85;2.38;;;;;;;11.03;100.00;101073.91;5053129;28;20037;-78
2023/06/26 01:08:16;;;;;;;3.30;1.10;;;;;;;11.10;100.00;101071.38;5037252;28;20032;-77
2023/06/26 01:10:42;;;;;;;2.90;1.00;;;;;;;11.02;100.00;101072.25;5053300;28;20168;-78
2023/06/26 01:13:08;;;;;;;4.60;1.05;;;;;;;10.83;100.00;101060.00;5020737;28;20048;-78
2023/06/26 01:15:34;;;;;;;4.35;1.10;;;;;;;10.65;100.00;101070.94;5036969;28;20116;-79
2023/06/26 01:18:03;;;;;;;3.25;1.52;;;;;;;10.52;100.00;101079.50;5020967;28;20029;-79
2023/06/26 01:20:32;;;;;;;5.82;2.90;;;;;;;10.44;100.00;101079.50;5052975;28;20514;-80
2023/06/26 01:23:22;;;;;;;7.82;1.30;;;;;;;10.33;100.00;101085.22;5054405;28;20041;-79
2023/06/26 01:26:10;;;;;;;1.27;0.80;;;;;;;10.24;100.00;101081.66;5037041;28;20033;-79
2023/06/26 01:28:38;;;;;;;4.07;1.40;;;;;;;10.16;100.00;101075.38;5036889;28;20036;-81
2023/06/26 01:31:04;;;;;;;3.55;1.40;;;;;;;10.05;100.00;101079.25;5053140;28;20386;-78
2023/06/26 01:33:30;;;;;;;3.92;1.05;;;;;;;9.97;100.00;101068.47;5036478;28;20179;-80
2023/06/26 01:35:56;;;;;;;1.88;0.98;;;;;;;10.00;100.00;101084.25;5053131;28;20475;-79
2023/06/26 01:38:28;;;;;;;5.32;1.50;;;;;;;10.05;100.00;101088.13;5036333;28;20032;-79
2023/06/26 01:40:54;;;;;;;4.95;1.52;;;;;;;10.09;100.00;101084.13;5036725;28;20021;-79
2023/06/26 01:43:25;;;;;;;2.67;1.38;;;;;;;10.18;100.00;101086.81;5052851;28;20031;-78
2023/06/26 01:45:54;;;;;;;3.60;1.13;;;;;;;10.14;100.00;101067.50;5036421;28;20044;-77
2023/06/26 01:48:24;;;;;;;6.05;1.50;;;;;;;10.35;100.00;101093.94;5019666;28;20071;-78
2023/06/26 01:50:52;;;;;;;6.25;1.52;;;;;;;10.43;100.00;101091.28;5019732;28;20033;-79
2023/06/26 01:53:21;;;;;;;4.93;1.50;;;;;;;10.44;100.00;101076.81;5019833;28;20110;-79
2023/06/26 01:55:55;;;;;;;3.28;1.20;;;;;;;10.58;100.00;101088.75;5036422;28;20036;-78
2023/06/26 01:58:24;;;;;;;3.38;1.35;;;;;;;10.69;100.00;101095.63;5052868;28;20471;-78
2023/06/26 02:00:49;;;;;;;3.38;1.15;;;;;;;10.74;100.00;101102.22;5019664;28;20044;-79
2023/06/26 02:03:20;;;;;;;2.47;1.08;;;;;;;10.77;100.00;101090.28;5052176;28;20036;-80
2023/06/26 02:05:45;;;;;;;4.53;1.42;;;;;;;10.74;100.00;101069.06;5035953;28;20080;-77
2023/06/26 02:08:14;;;;;;;3.60;1.40;;;;;;;10.88;100.00;101089.09;5053771;28;20056;-78
2023/06/26 02:10:39;;;;;;;2.97;0.90;;;;;;;10.90;100.00;101077.16;5052420;28;20034;-77
2023/06/26 02:13:05;;;;;;;9.57;1.52;;;;;;;10.94;100.00;101077.63;5052340;28;20039;-79
2023/06/26 02:15:30;;;;;;;2.55;1.00;;;;;;;10.93;100.00;101075.97;5052307;28;20029;-77
2023/06/26 02:17:56;;;;;;;2.00;1.05;;;;;;;11.04;100.00;101090.91;5053324;28;20033;-79
2023/06/26 02:20:22;;;;;;;6.18;1.52;;;;;;;11.09;100.00;101075.94;5035778;28;20036;-80
2023/06/26 02:22:47;;;;;;;2.85;1.00;;;;;;;11.13;100.00;101074.56;5035247;28;20483;-77
2023/06/26 02:25:14;;;;;;;4.32;1.20;;;;;;;11.19;100.00;101087.34;5053508;28;20025;-78
2023/06/26 02:27:40;;;;;;;4.53;1.15;;;;;;;11.23;100.00;101082.47;5051999;28;20029;-78
2023/06/26 02:30:07;;;;;;;4.20;1.58;;;;;;;11.28;100.00;101085.47;5019332;28;20357;-78
2023/06/26 02:32:33;;;;;;;1.00;0.80;;;;;;;11.31;100.00;101092.38;5035594;28;20035;-76
2023/06/26 02:34:58;;;;;;;4.43;1.50;;;;;;;11.28;100.00;101088.16;5053381;28;20112;-77
2023/06/26 02:37:24;;;;;;;4.75;1.30;;;;;;;11.30;100.00;101101.44;5053456;28;20368;-78
2023/06/26 02:39:50;;;;;;;2.10;0.80;;;;;;;11.14;100.00;101078.97;5052153;28;20071;-77
2023/06/26 02:42:16;;;;;;;3.63;0.93;;;;;;;11.21;100.00;101097.94;5019407;28;20446;-77
2023/06/26 02:44:41;;;;;;;3.83;1.00;;;;;;;11.23;100.00;101104.00;5019057;28;20498;-77
2023/06/26 02:47:07;;;;;;;6.03;2.10;;;;;;;11.23;100.00;101101.28;5052226;28;20036;-78
2023/06/26 02:49:32;;;;;;;5.10;1.08;;;;;;;11.22;100.00;101100.47;5035755;28;20037;-76
2023/06/26 02:51:58;;;;;;;5.00;1.38;;;;;;;11.16;100.00;101103.81;5019324;28;20037;-77
2023/06/26 02:54:23;;;;;;;4.53;1.13;;;;;;;10.94;100.00;101105.38;5035518;28;20040;-77
2023/06/26 02:56:51;;;;;;;1.33;0.73;;;;;;;10.73;100.00;101111.28;5052111;28;20035;-77
2023/06/26 02:59:17;;;;;;;2.05;0.95;;;;;;;10.56;100.00;101107.75;5052989;28;20032;-76
2023/06/26 03:01:43;;;;;;;2.40;0.77;;;;;;;10.39;100.00;101102.50;5035476;28;20025;-78
2023/06/26 03:04:10;;;;;;;3.70;1.30;;;;;;;10.40;100.00;101107.75;5051911;28;20035;-77
2023/06/26 03:06:36;;;;;;;2.28;1.00;;;;;;;10.36;100.00;101109.06;5035589;28;20036;-79
2023/06/26 03:09:05;;;;;;;3.20;1.23;;;;;;;10.33;100.00;101107.53;5018766;28;20048;-77
2023/06/26 03:11:30;;;;;;;4.45;1.10;;;;;;;10.42;100.00;101121.81;5035764;28;20064;-76
2023/06/26 03:13:56;;;;;;;5.40;1.10;;;;;;;10.46;100.00;101112.44;5035429;28;20056;-77
2023/06/26 03:16:21;;;;;;;3.00;0.90;;;;;;;10.63;100.00;101118.66;5019118;28;20040;-77
2023/06/26 03:18:47;;;;;;;5.88;1.15;;;;;;;10.49;100.00;101089.75;5018892;28;20387;-77
2023/06/26 03:21:13;;;;;;;2.60;1.00;;;;;;;10.65;100.00;101110.44;5035448;28;20029;-78
2023/06/26 03:23:38;;;;;;;3.78;1.27;;;;;;;10.54;100.00;101090.09;5018773;28;20106;-77
2023/06/26 03:26:04;;;;;;;2.53;1.13;;;;;;;10.74;100.00;101106.72;5051810;28;20028;-77
2023/06/26 03:28:31;;;;;;;3.58;1.17;;;;;;;10.83;100.00;101104.91;5035254;28;20037;-79
2023/06/26 03:30:56;;;;;;;3.25;1.10;;;;;;;10.94;100.00;101115.31;5051838;28;20032;-77
2023/06/26 03:33:22;;;;;;;3.90;1.33;;;;;;;10.90;100.00;101087.91;5019660;28;20041;-77
2023/06/26 03:35:48;;;;;;;4.07;1.27;;;;;;;11.05;100.00;101106.03;5038691;28;20455;-77
2023/06/26 03:38:13;;;;;;;3.13;0.95;;;;;;;11.06;100.00;101102.31;5022508;28;20041;-77
2023/06/26 03:40:39;;;;;;;4.35;1.33;;;;;;;11.06;100.00;101100.50;5038701;28;20029;-78
2023/06/26 03:43:04;;;;;;;2.35;1.05;;;;;;;11.10;100.00;101106.38;5022307;28;20467;-78
2023/06/26 03:45:30;;;;;;;5.55;1.48;;;;;;;11.12;100.00;101109.75;5038625;28;20032;-76
2023/06/26 03:47:56;;;;;;;2.70;1.10;;;;;;;11.06;100.00;101107.72;5022445;28;20472;-78
2023/06/26 03:50:21;;;;;;;2.35;1.00;;;;;;;10.95;100.00;101112.44;5055013;28;20383;-77
2023/06/26 03:52:47;;;;;;;3.85;1.58;;;;;;;10.89;100.00;101120.34;5055071;28;20025;-77
2023/06/26 03:55:12;;;;;;;2.63;1.27;;;;;;;10.94;100.00;101128.75;5022234;28;20118;-77
2023/06/26 03:57:38;;;;;;;3.05;0.90;;;;;;;10.95;100.00;101128.56;5038595;28;20037;-78
2023/06/26 04:00:12;;;;;;;2.40;1.30;;;;;;;11.03;100.00;101135.78;5038377;28;20025;-78
2023/06/26 04:02:40;;;;;;;7.30;1.20;;;;;;;10.98;100.00;101128.25;5024733;28;20044;-78
2023/06/26 04:05:06;;;;;;;5.95;1.33;;;;;;;11.05;100.00;101143.72;5054190;28;20096;-78
2023/06/26 04:07:31;;;;;;;2.30;0.70;;;;;;;10.97;100.00;101145.38;5038572;28;20068;-78
2023/06/26 04:09:57;;;;;;;4.13;1.23;;;;;;;10.90;100.00;101139.03;5037751;28;20032;-81
2023/06/26 04:12:23;;;;;;;7.70;1.52;;;;;;;10.89;100.00;101145.41;5054255;28;20040;-80
2023/06/26 04:14:49;;;;;;;4.60;1.33;;;;;;;10.70;100.00;101125.06;5054393;28;20048;-79
2023/06/26 04:17:14;;;;;;;2.63;1.13;;;;;;;10.75;100.00;101144.22;5021427;28;20044;-76
2023/06/26 04:19:40;;;;;;;4.47;0.98;;;;;;;10.80;100.00;101149.09;5021656;28;20430;-78
2023/06/26 04:22:05;;;;;;;10.48;1.52;;;;;;;10.84;100.00;101137.00;5037728;28;20032;-79
2023/06/26 04:24:31;;;;;;;4.88;0.80;;;;;;;10.87;100.00;101136.66;5037782;28;20075;-77
2023/06/26 04:26:57;;;;;;;2.50;1.10;;;;;;;10.84;100.00;101126.22;5021555;28;20041;-78
2023/06/26 04:29:26;;;;;;;3.88;1.20;;;;;;;10.89;100.00;101129.25;5037800;28;20075;-80
2023/06/26 04:31:57;;;;;;;5.72;1.48;;;;;;;11.00;100.00;101141.53;5037692;28;20060;-78
2023/06/26 04:34:26;;;;;;;3.47;1.63;;;;;;;10.79;100.00;101112.44;5038857;28;20083;-78
2023/06/26 04:36:52;;;;;;;2.15;1.05;;;;;;;10.92;100.00;101145.06;5005232;28;20032;-77
2023/06/26 04:39:17;;;;;;;2.75;1.00;;;;;;;10.85;100.00;101148.59;5037691;28;20391;-78
2023/06/26 04:41:44;;;;;;;3.75;1.20;;;;;;;10.89;100.00;101158.00;5053875;28;20021;-77
2023/06/26 04:44:10;;;;;;;3.78;1.35;;;;;;;10.89;100.00;101158.84;5037291;28;20062;-77
2023/06/26 04:46:37;;;;;;;7.85;1.27;;;;;;;10.90;100.00;101173.13;5020728;28;20033;-78
2023/06/26 04:49:03;;;;;;;5.30;1.42;;;;;;;10.88;100.00;101170.63;5053697;28;20033;-78
2023/06/26 04:51:28;;;;;;;10.43;1.85;;;;;;;10.94;100.00;101171.81;5021600;28;20033;-77
2023/06/26 04:53:54;;;;;;;1.67;1.05;;;;;;;10.97;100.00;101161.53;5053607;28;20373;-77
2023/06/26 04:56:20;;;;;;;2.78;1.00;;;;;;;11.07;100.00;101163.22;5053650;28;20029;-79
2023/06/26 04:58:45;;;;;;;4.03;1.65;;;;;;;11.22;100.00;101173.13;5053746;28;20468;-78
2023/06/26 05:01:13;;;;;;;8.85;1.48;;;;;;;11.35;100.00;101161.84;5053623;28;20079;-78
2023/06/26 05:03:39;;;;;;;1.45;0.73;;;;;;;11.68;100.00;101179.78;5037293;28;20544;-78
2023/06/26 05:06:05;;;;;;;3.13;1.23;;;;;;;11.86;100.00;101180.44;5020485;28;20051;-80
2023/06/26 05:08:30;;;;;;;3.20;1.25;;;;;;;12.35;100.00;101182.06;5036948;28;20531;-77
2023/06/26 05:10:59;;;;;;;5.03;1.45;;;;;;;13.00;100.00;101181.63;5054705;28;20103;-78
2023/06/26 05:13:25;;;;;;;6.63;1.50;;;;;;;12.94;100.00;101179.66;5037313;28;20040;-77
2023/06/26 05:15:52;;;;;;;2.50;1.13;;;;;;;12.86;100.00;101183.25;5020465;28;20095;-79
2023/06/26 05:18:18;;;;;;;2.15;1.10;;;;;;;12.82;100.00;101190.00;5020469;28;20033;-78
2023/06/26 05:20:44;;;;;;;5.55;1.50;;;;;;;12.77;100.00;101174.34;5036773;28;20376;-82
2023/06/26 05:23:11;;;;;;;3.40;0.88;;;;;;;12.90;100.00;101191.81;5054210;28;20029;-78
2023/06/26 05:25:37;;;;;;;4.90;1.80;;;;;;;13.00;100.00;101194.28;5053354;28;20117;-78
2023/06/26 05:28:08;;;;;;;3.35;0.95;;;;;;;13.09;100.00;101199.41;5020350;28;20494;-77
2023/06/26 05:30:36;;;;;;;3.85;1.38;;;;;;;13.12;100.00;101193.63;5053271;28;20476;-77
2023/06/26 05:33:02;;;;;;;3.90;1.63;;;;;;;13.07;100.00;101217.66;5053128;28;20116;-78
2023/06/26 05:35:30;;;;;;;2.55;0.90;;;;;;;13.01;100.00;101226.47;5036279;28;20108;-79
2023/06/26 05:37:56;;;;;;;4.95;1.50;;;;;;;12.90;100.00;101210.72;5053268;28;20037;-78
2023/06/26 05:40:22;;;;;;;4.07;1.17;;;;;;;12.84;100.00;101219.53;5020113;28;20033;-78
2023/06/26 05:42:47;;;;;;;3.97;1.40;;;;;;;12.83;100.00;101218.66;5054183;28;20111;-78
2023/06/26 05:45:13;;;;;;;4.32;1.27;;;;;;;12.75;100.00;101213.31;5035981;28;20464;-78
2023/06/26 05:47:39;;;;;;;3.17;1.27;;;;;;;12.71;100.00;101212.84;5020032;28;20036;-79
2023/06/26 05:50:06;;;;;;;4.60;1.52;;;;;;;12.73;100.00;101213.53;5036106;28;20025;-78
2023/06/26 05:52:32;;;;;;;3.78;1.67;;;;;;;12.83;100.00;101215.97;5019994;28;20033;-81
2023/06/26 05:54:59;;;;;;;5.03;1.52;;;;;;;12.95;100.00;101202.91;5036151;28;20537;-78
2023/06/26 05:57:27;;;;;;;5.90;1.70;;;;;;;13.19;100.00;101201.88;5035031;28;20025;-77
2023/06/26 05:59:53;;;;;;;5.22;1.60;;;;;;;13.35;100.00;101209.84;5036012;28;20509;-78
2023/06/26 06:02:19;;;;;;;4.03;1.40;;;;;;;13.53;100.00;101212.22;5036105;28;20025;-76
2023/06/26 06:04:51;;;;;;;6.80;1.45;;;;;;;13.58;100.00;101212.50;5019163;28;20064;-77
2023/06/26 06:07:16;;;;;;;4.93;1.40;;;;;;;13.57;100.00;101212.69;5052650;28;20066;-77
2023/06/26 06:09:42;;;;;;;2.63;1.10;;;;;;;13.54;100.00;101196.84;5052849;28;20426;-79
2023/06/26 06:12:08;;;;;;;3.50;1.45;;;;;;;13.87;100.00;101205.44;5021261;28;20434;-78
2023/06/26 06:14:34;;;;;;;4.30;1.33;;;;;;;14.86;100.00;101191.44;5021537;28;20472;-78
2023/06/26 06:17:01;;;;;;;1.45;1.10;;;;;;;16.24;100.00;101201.59;5003822;28;20051;-78
2023/06/26 06:19:26;;;;;;;1.70;1.05;;;;;;;17.30;100.00;101203.72;5020063;28;20064;-77
2023/06/26 06:21:53;;;;;;;5.32;1.45;;;;;;;18.17;100.00;101195.44;5036169;28;20045;-75
2023/06/26 06:24:19;;;;;;;2.53;1.10;;;;;;;18.83;100.00;101203.28;5052087;28;20112;-77
2023/06/26 06:26:44;;;;;;;7.82;1.33;;;;;;;19.43;99.97;101210.16;5035700;28;20033;-75
2023/06/26 06:29:10;;;;;;;2.08;0.90;;;;;;;19.91;97.13;101214.97;5035530;28;20033;-76
2023/06/26 06:31:36;;;;;;;3.65;1.50;;;;;;;20.29;94.63;101206.53;5019548;28;20467;-76
2023/06/26 06:34:02;;;;;;;3.42;0.90;;;;;;;20.69;93.14;101216.94;5019497;28;20037;-75
2023/06/26 06:36:27;;;;;;;3.47;1.27;;;;;;;20.99;89.66;101218.84;5052105;28;20040;-76
2023/06/26 06:38:53;;;;;;;2.28;0.85;;;;;;;20.98;89.21;101214.44;5052290;28;20060;-75
2023/06/26 06:41:20;;;;;;;6.05;1.38;;;;;;;19.59;94.81;101195.97;5035782;28;20095;-76
2023/06/26 06:43:46;;;;;;;2.35;1.10;;;;;;;20.11;93.55;101207.41;5019206;28;20094;-76
2023/06/26 06:46:12;;;;;;;4.35;1.20;;;;;;;19.79;94.48;101216.78;5052263;28;20033;-75
2023/06/26 06:48:37;;;;;;;3.00;1.10;;;;;;;19.60;96.46;101213.97;5019393;28;20107;-75
2023/06/26 06:51:03;;;;;;;6.30;1.00;;;;;;;19.41;92.84;101194.03;5035713;28;20548;-75
2023/06/26 06:53:29;;;;;;;2.17;1.10;;;;;;;19.43;90.50;101208.28;5035292;28;20476;-75
2023/06/26 06:55:55;;;;;;;5.45;1.25;;;;;;;19.86;86.70;101212.91;5052189;28;20064;-76
2023/06/26 06:58:20;;;;;;;3.13;0.95;;;;;;;19.21;86.92;101223.34;5035629;28;20032;-75
2023/06/26 07:00:46;;;;;;;4.13;0.95;;;;;;;18.43;90.06;101219.81;5052138;28;20108;-75
2023/06/26 07:03:11;;;;;;;2.72;1.23;;;;;;;18.19;90.41;101218.66;5019151;28;20120;-75
2023/06/26 07:05:37;;;;;;;3.72;1.50;;;;;;;18.11;89.19;101216.19;5051725;28;20118;-75
2023/06/26 07:08:04;;;;;;;6.78;2.13;;;;;;;17.64;89.56;101225.47;5035307;28;20435;-77
2023/06/26 07:10:29;;;;;;;5.55;1.63;;;;;;;17.77;89.05;101228.16;5023015;28;20037;-76
2023/06/26 07:12:55;;;;;;;3.50;1.30;;;;;;;17.38;89.65;101235.28;5022884;28;20387;-76
2023/06/26 07:15:21;;;;;;;7.22;1.90;;;;;;;16.82;92.60;101235.66;5039460;28;20036;-76
2023/06/26 07:17:47;;;;;;;3.38;1.40;;;;;;;16.45;95.45;101248.66;5022832;28;20474;-76
2023/06/26 07:20:15;;;;;;;6.70;1.52;;;;;;;16.27;98.06;101250.06;5055763;28;20036;-76
2023/06/26 07:22:42;;;;;;;3.83;1.15;;;;;;;16.08;99.15;101229.06;5055633;28;20468;-77
2023/06/26 07:25:11;;;;;;;6.30;1.55;;;;;;;16.28;98.77;101248.19;5038782;28;20461;-77
2023/06/26 07:27:37;;;;;;;3.72;1.05;;;;;;;16.35;98.56;101230.03;5039462;28;20032;-75
2023/06/26 07:30:03;;;;;;;5.00;1.38;;;;;;;16.48;96.30;101251.81;5055451;28;20036;-75
2023/06/26 07:32:29;;;;;;;4.00;1.23;;;;;;;16.56;96.05;101263.53;5039059;28;20033;-75
2023/06/26 07:34:55;;;;;;;11.10;2.38;;;;;;;16.45;95.97;101259.50;5022422;28;20098;-77
2023/06/26 07:37:21;;;;;;;4.90;1.85;;;;;;;16.34;97.21;101244.66;5022384;28;20044;-76
2023/06/26 07:39:47;;;;;;;2.72;1.02;;;;;;;16.42;96.67;101268.91;5055098;28;20025;-76
2023/06/26 07:42:13;;;;;;;3.67;1.23;;;;;;;16.43;97.64;101259.75;5038496;28;20033;-77
2023/06/26 07:44:39;;;;;;;4.18;1.08;;;;;;;16.43;97.47;101275.16;5022118;28;20521;-76
2023/06/26 07:47:05;;;;;;;3.42;1.02;;;;;;;16.36;96.67;101277.03;5038666;28;20433;-77
2023/06/26 07:49:31;;;;;;;1.75;0.90;;;;;;;16.31;96.31;101279.50;5054995;28;20025;-75
2023/06/26 07:51:57;;;;;;;3.60;1.15;;;;;;;16.27;95.92;101281.75;5055093;28;20051;-76
2023/06/26 07:54:22;;;;;;;6.10;1.15;;;;;;;15.97;96.94;101244.03;5038530;28;20471;-76
2023/06/26 07:56:59;;;;;;;5.78;1.55;;;;;;;16.21;98.13;101277.97;5054621;28;20094;-76
2023/06/26 07:59:28;;;;;;;5.40;1.55;;;;;;;16.25;97.75;101281.97;5022563;28;20091;-76
2023/06/26 08:01:56;;;;;;;3.00;1.27;;;;;;;16.23;97.56;101294.91;5038271;28;20029;-76
2023/06/26 08:04:24;;;;;;;2.65;0.95;;;;;;;16.11;98.30;101280.22;5021533;28;20123;-76
2023/06/26 08:06:51;;;;;;;6.85;1.20;;;;;;;16.01;100.00;101287.91;5037632;28;20396;-76
2023/06/26 08:09:17;;;;;;;2.47;1.30;;;;;;;15.70;100.00;101281.00;5038127;28;20029;-76
2023/06/26 08:11:47;;;;;;;3.33;1.00;;;;;;;15.52;100.00;101286.03;5038272;28;20044;-76
2023/06/26 08:14:12;;;;;;;3.92;1.30;;;;;;;15.42;100.00;101283.63;5021295;28;20491;-76
2023/06/26 08:16:39;;;;;;;4.50;1.83;;;;;;;15.35;100.00;101286.31;5021840;28;20044;-75
2023/06/26 08:19:05;;;;;;;7.07;1.52;;;;;;;15.70;100.00;101309.97;5037741;28;20083;-76
2023/06/26 08:21:30;;;;;;;7.97;1.80;;;;;;;15.98;100.00;101277.41;5020871;28;20033;-76
2023/06/26 08:23:56;;;;;;;7.32;1.80;;;;;;;16.40;100.00;101303.53;5021154;28;20509;-76
2023/06/26 08:26:21;;;;;;;9.10;1.75;;;;;;;16.66;100.00;101299.28;5054339;28;20029;-75
2023/06/26 08:28:47;;;;;;;3.33;1.80;;;;;;;16.79;100.00;101298.53;5020936;28;20463;-79
2023/06/26 08:31:13;;;;;;;5.72;1.73;;;;;;;17.26;100.00;101308.47;5020276;28;20463;-83
2023/06/26 08:33:38;;;;;;;5.50;1.45;;;;;;;17.42;98.48;101322.72;5021481;28;20032;-83
2023/06/26 08:36:04;;;;;;;6.70;1.23;;;;;;;17.51;96.04;101311.41;5038000;28;20083;-85
2023/06/26 08:38:30;;;;;;;5.18;1.50;;;;;;;17.52;94.68;101293.25;5037572;28;20394;-83
2023/06/26 08:40:55;;;;;;;3.30;1.10;;;;;;;17.79;93.56;101318.59;5054286;28;20032;-83
2023/06/26 08:43:21;;;;;;;6.65;1.40;;;;;;;17.90;91.27;101314.38;5021160;28;20402;-83
2023/06/26 08:45:51;;;;;;;3.70;1.40;;;;;;;18.02;90.55;101323.59;5053869;28;20463;-83
2023/06/26 08:48:18;;;;;;;1.88;1.02;;;;;;;18.19;90.06;101327.53;5038261;28;20041;-83
2023/06/26 08:50:44;;;;;;;2.78;1.30;;;;;;;18.20;89.65;101339.25;5037608;28;20037;-84
2023/06/26 08:53:53;;;;;;;7.32;2.13;;;;;;;18.24;89.48;101326.91;5021122;28;20037;-83
2023/06/26 08:56:21;;;;;;;7.47;1.58;;;;;;;18.29;88.27;101318.09;5034278;28;20040;-84
2023/06/26 08:58:47;;;;;;;2.92;1.23;;;;;;;18.46;86.58;101314.69;5047663;28;20102;-84
2023/06/26 09:01:13;;;;;;;8.75;1.88;;;;;;;18.54;85.83;101320.94;5037292;28;20108;-84
2023/06/26 09:03:41;;;;;;;6.25;1.58;;;;;;;18.61;85.65;101336.22;5020750;28;20120;-83
2023/06/26 09:06:07;;;;;;;4.90;1.42;;;;;;;18.63;84.49;101339.56;5053701;28;20090;-84
2023/06/26 09:08:33;;;;;;;6.82;1.55;;;;;;;18.78;84.61;101336.59;5020734;28;20120;-84
2023/06/26 09:10:58;;;;;;;6.28;1.67;;;;;;;19.07;82.73;101339.81;5020584;28;20041;-84
2023/06/26 09:13:24;;;;;;;6.30;1.73;;;;;;;18.99;81.27;101332.72;5037053;28;20025;-84
2023/06/26 09:15:53;;;;;;;8.13;1.92;;;;;;;19.05;80.70;101325.56;5053529;28;20162;-85
2023/06/26 09:18:21;;;;;;;4.70;1.60;;;;;;;19.11;80.25;101333.72;5020578;28;20043;-84
2023/06/26 09:20:47;;;;;;;10.75;1.85;;;;;;;19.22;80.32;101328.63;5036929;28;20048;-84
2023/06/26 09:23:13;;;;;;;5.75;1.70;;;;;;;19.38;79.59;101325.38;5020347;28;20555;-84
2023/06/26 09:25:40;;;;;;;4.90;1.33;;;;;;;19.08;79.58;101345.06;5020472;28;20503;-84
2023/06/26 09:28:06;;;;;;;4.70;1.58;;;;;;;17.98;83.66;101309.56;5053631;28;20056;-87
2023/06/26 09:30:32;;;;;;;6.60;1.60;;;;;;;17.57;88.67;101355.97;5053695;28;20127;-82
2023/06/26 09:33:16;;;;;;;7.10;1.60;;;;;;;17.30;93.64;101352.38;5037723;28;20043;-82
2023/06/26 09:35:46;;;;;;;3.17;1.33;;;;;;;17.53;94.85;101341.13;5022075;28;20028;-83
2023/06/26 09:38:12;;;;;;;3.88;1.25;;;;;;;17.88;93.69;101352.66;5037782;28;20029;-83
2023/06/26 09:40:38;;;;;;;5.75;1.45;;;;;;;18.34;93.28;101362.69;5036661;28;20139;-84
2023/06/26 09:43:09;;;;;;;6.65;2.50;;;;;;;18.67;89.69;101356.31;5020032;28;20029;-85
2023/06/26 09:45:38;;;;;;;5.93;1.55;;;;;;;18.58;89.14;101344.00;5036454;28;20488;-83
2023/06/26 09:48:04;;;;;;;4.38;1.10;;;;;;;18.66;87.55;101351.91;5053019;28;20468;-84
2023/06/26 09:50:33;;;;;;;5.32;1.63;;;;;;;18.44;84.71;101327.69;5052859;28;20491;-84
2023/06/26 09:53:07;;;;;;;1.70;0.85;;;;;;;18.56;83.90;101344.19;5052876;28;20079;-86
2023/06/26 09:55:35;;;;;;;2.50;1.08;;;;;;;18.88;78.32;101358.75;5052944;28;20463;-87
2023/06/26 09:58:02;;;;;;;4.70;1.42;;;;;;;19.05;78.15;101364.56;5036483;28;20036;-84
2023/06/26 10:00:28;;;;;;;3.72;1.38;;;;;;;19.20;76.08;101347.09;5036414;28;20044;-84
2023/06/26 10:02:54;;;;;;;6.13;1.63;;;;;;;19.64;77.14;101359.81;5036307;28;20036;-85
2023/06/26 10:05:20;;;;;;;9.23;1.77;;;;;;;20.04;74.11;101358.66;5019156;28;20036;-90
2023/06/26 10:07:46;;;;;;;5.60;2.10;;;;;;;20.43;71.34;101371.94;5052402;28;20456;-87
2023/06/26 10:10:12;;;;;;;3.05;1.50;;;;;;;20.88;70.07;101373.56;5052826;28;20035;-86
2023/06/26 10:12:38;;;;;;;4.55;1.30;;;;;;;21.34;67.21;101372.09;5036062;28;20041;-84
2023/06/26 10:15:06;;;;;;;8.35;1.80;;;;;;;21.48;66.40;101370.84;5053845;28;20074;-87
2023/06/26 10:17:39;;;;;;;3.88;1.52;;;;;;;21.68;63.37;101378.75;5037104;28;20029;-85
2023/06/26 10:20:09;;;;;;;8.75;2.13;;;;;;;21.80;60.48;101384.25;5019940;28;20040;-88
2023/06/26 10:22:46;;;;;;;3.80;1.67;;;;;;;21.85;59.78;101370.69;5052641;28;20490;-84
2023/06/26 10:25:17;;;;;;;5.10;1.40;;;;;;;22.20;59.71;101369.06;5019356;28;20025;-86
2023/06/26 10:27:45;;;;;;;6.07;1.95;;;;;;;22.38;58.42;101383.47;5019512;28;20033;-83
2023/06/26 10:30:14;;;;;;;4.35;1.17;;;;;;;22.55;58.22;101391.81;5019241;28;20108;-83
2023/06/26 10:32:40;;;;;;;5.50;2.05;;;;;;;23.14;55.71;101386.22;5035702;28;20103;-84
2023/06/26 10:35:07;;;;;;;3.65;1.50;;;;;;;23.47;53.87;101362.66;5036005;28;20254;-84
2023/06/26 10:37:49;;;;;;;5.35;1.77;;;;;;;23.52;53.71;101376.47;5036219;28;20041;-85
2023/06/26 10:40:27;;;;;;;4.63;1.58;;;;;;;23.41;52.84;101385.63;5035824;28;20029;-85
2023/06/26 10:43:09;;;;;;;5.75;1.90;;;;;;;22.73;53.47;101399.06;5036161;28;20388;-85
2023/06/26 10:45:36;;;;;;;3.05;1.20;;;;;;;22.01;52.68;101390.25;5031918;28;20037;-83
2023/06/26 10:48:04;;;;;;;6.80;1.73;;;;;;;21.16;54.86;101394.84;5045460;28;20041;-84
2023/06/26 10:50:31;;;;;;;6.25;1.83;;;;;;;20.36;57.73;101378.50;5056433;28;20519;-83
2023/06/26 10:53:21;;;;;;;5.30;1.48;;;;;;;20.12;63.39;101399.34;5023051;28;20033;-87
2023/06/26 10:56:04;;;;;;;7.40;1.83;;;;;;;20.22;65.39;101399.66;5056539;28;20383;-82
2023/06/26 10:58:42;;;;;;;7.47;1.83;;;;;;;20.91;63.36;101394.13;5022754;28;20387;-81
2023/06/26 11:01:12;;;;;;;10.50;2.05;;;;;;;21.74;60.07;101407.91;5039881;28;20025;-84
2023/06/26 11:03:38;;;;;;;8.50;2.30;;;;;;;22.60;57.22;101405.63;5056069;28;20028;-83
2023/06/26 11:06:10;;;;;;;7.68;1.60;;;;;;;23.29;53.09;101396.66;5055958;28;20036;-83
2023/06/26 11:08:50;;;;;;;2.80;1.50;;;;;;;24.53;50.64;101394.91;5056019;28;20029;-84
2023/06/26 11:11:17;;;;;;;4.25;1.33;;;;;;;24.20;49.75;101390.28;5023064;28;20029;-83
2023/06/26 11:13:44;;;;;;;4.22;1.38;;;;;;;23.69;50.90;101382.84;5039196;28;20037;-83
2023/06/26 11:16:12;;;;;;;8.60;2.35;;;;;;;23.67;50.33;101398.72;5039344;28;20084;-82
2023/06/26 11:18:38;;;;;;;6.18;1.55;;;;;;;23.38;51.77;101406.16;5055795;28;20029;-84
2023/06/26 11:21:09;;;;;;;5.15;1.80;;;;;;;23.11;50.90;101405.91;5022875;28;20037;-83